Time;durP1;ratioP1;P1;durP2;ratioP2;P2;SDS_P1;SDS_P2;PMS_P1;PMS_P2;Temp;Humidity;BMP_temperature;BMP_pressure;BME280_temperature;BME280_humidity;BME280_pressure;Samples;Min_cycle;Max_cycle;Signal;HPM_P1;HPM_P2
2023/07/20 00:01:53;;;;;;;1.67;1.00;;;19.60;73.10;;;;;;5081420;28;20028;-58
2023/07/20 00:04:18;;;;;;;1.17;1.13;;;19.50;73.00;;;;;;5076332;28;20048;-61
2023/07/20 00:06:44;;;;;;;1.88;1.10;;;19.50;73.10;;;;;;5086011;28;20032;-61
2023/07/20 00:09:10;;;;;;;1.95;1.05;;;19.50;73.10;;;;;;5081167;28;20028;-58
2023/07/20 00:11:38;;;;;;;0.75;0.75;;;19.50;73.20;;;;;;5079631;28;20502;-58
2023/07/20 00:14:07;;;;;;;2.28;1.10;;;19.40;73.20;;;;;;5075102;28;20024;-58
2023/07/20 00:16:33;;;;;;;0.93;0.82;;;19.40;73.20;;;;;;5080088;28;20477;-58
2023/07/20 00:18:58;;;;;;;0.98;0.88;;;19.40;73.30;;;;;;5070234;28;20423;-60
2023/07/20 00:21:24;;;;;;;1.15;1.02;;;19.30;73.30;;;;;;5072240;28;20483;-61
2023/07/20 00:23:50;;;;;;;1.00;0.90;;;19.30;73.30;;;;;;5065262;28;20025;-58
2023/07/20 00:26:16;;;;;;;2.33;1.33;;;19.30;73.40;;;;;;5078081;28;20025;-58
2023/07/20 00:28:43;;;;;;;1.25;1.15;;;19.30;73.40;;;;;;5076510;28;20432;-61
2023/07/20 00:31:09;;;;;;;0.80;0.80;;;19.30;73.50;;;;;;5079456;28;20021;-61
2023/07/20 00:33:34;;;;;;;0.80;0.80;;;19.20;73.50;;;;;;5077289;28;20024;-61
2023/07/20 00:36:00;;;;;;;0.95;0.85;;;19.20;73.50;;;;;;5077032;28;20029;-58
2023/07/20 00:38:26;;;;;;;0.93;0.80;;;19.20;73.50;;;;;;5070824;28;20024;-59
2023/07/20 00:40:51;;;;;;;2.40;1.30;;;19.20;73.60;;;;;;5079755;28;20036;-61
2023/07/20 00:43:17;;;;;;;1.20;0.80;;;19.10;73.70;;;;;;5081900;28;20027;-61
2023/07/20 00:45:44;;;;;;;1.45;1.10;;;19.10;73.90;;;;;;5085437;28;20064;-59
2023/07/20 00:48:11;;;;;;;2.08;0.60;;;19.10;74.20;;;;;;5080805;28;20390;-58
2023/07/20 00:50:37;;;;;;;1.30;0.80;;;19.00;74.20;;;;;;5081214;28;20047;-58
2023/07/20 00:53:05;;;;;;;2.97;0.70;;;19.00;74.30;;;;;;5087034;28;20028;-59
2023/07/20 00:55:31;;;;;;;0.98;0.90;;;19.00;74.30;;;;;;5080722;28;20085;-59
2023/07/20 00:57:58;;;;;;;4.43;0.65;;;19.10;74.50;;;;;;5086147;28;20410;-61
2023/07/20 01:00:23;;;;;;;2.78;1.00;;;19.00;74.50;;;;;;5067189;28;20036;-61
2023/07/20 01:02:49;;;;;;;1.25;1.02;;;19.00;74.50;;;;;;5084570;28;20058;-58
2023/07/20 01:05:17;;;;;;;1.35;1.02;;;19.10;74.60;;;;;;5074875;28;20060;-58
2023/07/20 01:08:09;;;;;;;1.20;0.70;;;19.00;74.80;;;;;;5076953;28;20036;-58
2023/07/20 01:10:50;;;;;;;0.88;0.73;;;19.00;74.90;;;;;;5071431;28;20036;-58
2023/07/20 01:13:18;;;;;;;1.70;0.80;;;19.00;75.00;;;;;;5071754;28;20293;-58
2023/07/20 01:15:50;;;;;;;4.03;1.10;;;19.00;75.10;;;;;;5076636;28;20407;-58
2023/07/20 01:18:15;;;;;;;1.23;1.13;;;19.00;75.30;;;;;;5076428;28;20078;-61
2023/07/20 01:20:41;;;;;;;0.95;0.88;;;18.90;75.50;;;;;;5073000;28;20032;-61
2023/07/20 01:23:13;;;;;;;1.00;0.73;;;18.90;75.60;;;;;;5074123;28;20032;-61
2023/07/20 01:26:00;;;;;;;0.73;0.73;;;18.90;75.70;;;;;;5078864;28;20036;-61
2023/07/20 01:28:57;;;;;;;1.77;1.10;;;18.80;76.40;;;;;;5078412;28;20130;-61
2023/07/20 01:31:28;;;;;;;1.35;0.80;;;18.80;75.90;;;;;;5072951;28;20033;-61
2023/07/20 01:34:00;;;;;;;1.53;0.83;;;18.80;76.00;;;;;;5066593;28;20025;-61
2023/07/20 01:36:29;;;;;;;1.13;0.65;;;18.90;76.00;;;;;;5078133;28;20259;-59
2023/07/20 01:38:56;;;;;;;1.27;0.77;;;18.90;76.10;;;;;;5078979;28;20123;-61
2023/07/20 01:41:22;;;;;;;3.10;1.00;;;18.90;76.20;;;;;;5081131;28;20125;-58
2023/07/20 01:43:47;;;;;;;0.75;0.75;;;18.90;76.20;;;;;;5075234;28;20475;-61
2023/07/20 01:46:13;;;;;;;1.08;0.75;;;18.90;76.20;;;;;;5076971;28;20106;-58
2023/07/20 01:48:39;;;;;;;0.80;0.80;;;19.00;76.30;;;;;;5078734;28;20067;-58
2023/07/20 01:51:04;;;;;;;1.38;1.02;;;19.00;76.30;;;;;;5078101;28;20702;-61
2023/07/20 01:53:30;;;;;;;0.93;0.93;;;19.00;76.30;;;;;;5078534;28;20031;-58
2023/07/20 01:55:57;;;;;;;1.30;0.77;;;18.90;76.20;;;;;;5074814;28;20124;-58
2023/07/20 01:58:23;;;;;;;1.00;0.60;;;18.90;76.30;;;;;;5074547;28;20036;-61
2023/07/20 02:00:48;;;;;;;1.33;0.82;;;18.90;76.40;;;;;;5076949;28;20028;-58
2023/07/20 02:03:14;;;;;;;0.60;0.60;;;18.80;76.30;;;;;;5074195;28;20558;-58
2023/07/20 02:05:42;;;;;;;1.05;0.75;;;18.80;76.40;;;;;;5080513;28;20063;-58
2023/07/20 02:08:08;;;;;;;0.93;0.90;;;18.70;76.40;;;;;;5073732;28;20497;-59
2023/07/20 02:10:34;;;;;;;0.88;0.75;;;18.60;76.40;;;;;;5078754;28;20020;-58
2023/07/20 02:13:00;;;;;;;0.60;0.60;;;18.60;76.50;;;;;;5069832;28;20031;-60
2023/07/20 02:15:25;;;;;;;0.85;0.65;;;18.60;76.50;;;;;;5071761;28;20127;-58
2023/07/20 02:17:51;;;;;;;3.25;0.90;;;18.60;76.50;;;;;;5071915;28;20020;-57
2023/07/20 02:20:17;;;;;;;0.45;0.45;;;18.50;76.50;;;;;;5072416;28;20028;-58
2023/07/20 02:22:43;;;;;;;2.35;0.90;;;18.50;76.50;;;;;;5065418;28;20029;-58
2023/07/20 02:25:09;;;;;;;0.50;0.50;;;18.50;76.50;;;;;;5072747;28;20424;-58
2023/07/20 02:27:35;;;;;;;0.63;0.60;;;18.50;76.50;;;;;;5072936;28;20459;-58
2023/07/20 02:30:03;;;;;;;0.60;0.57;;;18.40;76.50;;;;;;5066583;28;20526;-58
2023/07/20 02:32:29;;;;;;;0.45;0.43;;;18.40;76.50;;;;;;5071329;28;20025;-58
2023/07/20 02:34:55;;;;;;;0.50;0.50;;;18.30;76.40;;;;;;5065635;28;20029;-58
2023/07/20 02:37:21;;;;;;;0.30;0.30;;;18.30;76.40;;;;;;5075327;28;20035;-61
2023/07/20 02:39:47;;;;;;;2.17;0.60;;;18.30;76.40;;;;;;5071589;28;20471;-59
2023/07/20 02:42:13;;;;;;;2.08;0.52;;;18.30;76.40;;;;;;5066936;28;20410;-58
2023/07/20 02:44:38;;;;;;;0.85;0.70;;;18.20;76.20;;;;;;5070412;28;20676;-59
2023/07/20 02:47:04;;;;;;;0.70;0.70;;;18.20;76.20;;;;;;5078210;28;20021;-59
2023/07/20 02:49:30;;;;;;;0.40;0.40;;;18.20;76.20;;;;;;5070250;28;20082;-59
2023/07/20 02:51:56;;;;;;;0.60;0.60;;;18.20;76.00;;;;;;5072442;28;20034;-61
2023/07/20 02:54:21;;;;;;;0.55;0.47;;;18.10;75.90;;;;;;5075403;28;20039;-61
2023/07/20 02:56:47;;;;;;;0.70;0.70;;;18.10;76.00;;;;;;5074315;28;20047;-58
2023/07/20 02:59:13;;;;;;;0.85;0.50;;;18.10;76.20;;;;;;5065593;28;20020;-58
2023/07/20 03:01:38;;;;;;;0.40;0.40;;;18.00;76.20;;;;;;5077595;28;20151;-61
2023/07/20 03:04:04;;;;;;;0.40;0.40;;;18.00;76.10;;;;;;5077735;28;20036;-61
2023/07/20 03:06:30;;;;;;;0.93;0.43;;;18.00;76.20;;;;;;5072688;28;20119;-58
2023/07/20 03:08:56;;;;;;;1.73;0.40;;;17.90;76.10;;;;;;5076941;28;20028;-61
2023/07/20 03:11:22;;;;;;;0.60;0.60;;;17.90;76.10;;;;;;5080022;28;20037;-61
2023/07/20 03:13:48;;;;;;;0.70;0.40;;;17.90;76.10;;;;;;5074452;28;20095;-58
2023/07/20 03:16:18;;;;;;;0.80;0.70;;;17.80;76.00;;;;;;5072517;28;20048;-61
2023/07/20 03:18:44;;;;;;;1.95;0.50;;;17.80;76.10;;;;;;5084037;28;20689;-61
2023/07/20 03:21:13;;;;;;;0.45;0.45;;;17.80;76.10;;;;;;5076985;28;20017;-61
2023/07/20 03:23:40;;;;;;;0.73;0.50;;;17.70;76.10;;;;;;5085113;28;20066;-61
2023/07/20 03:26:08;;;;;;;0.40;0.40;;;17.70;76.20;;;;;;5084731;28;20021;-61
2023/07/20 03:28:34;;;;;;;1.08;0.40;;;17.60;76.40;;;;;;5084818;28;20400;-61
2023/07/20 03:31:00;;;;;;;0.50;0.50;;;17.60;76.40;;;;;;5085877;28;20375;-61
2023/07/20 03:33:27;;;;;;;0.57;0.45;;;17.60;76.50;;;;;;5079728;28;20016;-61
2023/07/20 03:35:53;;;;;;;0.30;0.30;;;17.60;76.40;;;;;;5076901;28;20035;-61
2023/07/20 03:38:23;;;;;;;0.38;0.38;;;17.60;76.40;;;;;;5079559;28;20024;-62
2023/07/20 03:40:59;;;;;;;0.75;0.60;;;17.50;76.30;;;;;;5078252;28;20036;-61
2023/07/20 03:43:26;;;;;;;0.60;0.57;;;17.50;76.10;;;;;;5077145;28;20029;-61
2023/07/20 03:45:52;;;;;;;0.43;0.30;;;17.50;76.10;;;;;;5076472;28;20060;-61
2023/07/20 03:48:23;;;;;;;0.95;0.47;;;17.50;76.10;;;;;;5086177;28;20059;-61
2023/07/20 03:50:49;;;;;;;0.75;0.63;;;17.50;76.20;;;;;;5066825;28;20029;-58
2023/07/20 03:53:16;;;;;;;0.68;0.50;;;17.40;76.30;;;;;;5080039;28;20143;-59
2023/07/20 03:55:46;;;;;;;0.40;0.40;;;17.40;76.20;;;;;;5079544;28;20103;-59
2023/07/20 03:58:12;;;;;;;0.50;0.40;;;17.40;76.10;;;;;;5073556;28;20476;-59
2023/07/20 04:00:37;;;;;;;1.73;0.57;;;17.30;76.60;;;;;;5082221;28;20028;-59
2023/07/20 04:03:03;;;;;;;0.82;0.50;;;17.30;76.00;;;;;;5078887;28;20154;-58
2023/07/20 04:05:29;;;;;;;0.30;0.30;;;17.30;76.00;;;;;;5082515;28;20115;-58
2023/07/20 04:07:55;;;;;;;0.35;0.35;;;17.30;76.10;;;;;;5066203;28;20503;-59
2023/07/20 04:10:20;;;;;;;0.50;0.50;;;17.30;76.00;;;;;;5075370;28;20048;-61
2023/07/20 04:12:49;;;;;;;0.55;0.50;;;17.20;76.00;;;;;;5074315;28;20028;-58
2023/07/20 04:15:15;;;;;;;0.32;0.32;;;17.20;76.00;;;;;;5077651;28;20056;-62
2023/07/20 04:17:41;;;;;;;0.50;0.50;;;17.20;76.20;;;;;;5076786;28;20028;-61
2023/07/20 04:20:07;;;;;;;0.43;0.40;;;17.20;76.40;;;;;;5069577;28;20047;-58
2023/07/20 04:22:33;;;;;;;0.50;0.50;;;17.20;76.40;;;;;;5072736;28;20029;-58
2023/07/20 04:24:59;;;;;;;0.68;0.40;;;17.30;76.60;;;;;;5051344;28;20471;-61
2023/07/20 04:27:25;;;;;;;0.50;0.47;;;17.30;76.60;;;;;;5074728;28;20097;-61
2023/07/20 04:29:51;;;;;;;0.82;0.30;;;17.30;76.60;;;;;;5072230;28;20391;-59
2023/07/20 04:32:21;;;;;;;0.93;0.40;;;17.40;76.60;;;;;;5072234;28;20032;-59
2023/07/20 04:34:47;;;;;;;0.38;0.38;;;17.40;76.50;;;;;;5053011;28;20117;-59
2023/07/20 04:37:12;;;;;;;0.57;0.40;;;17.40;76.60;;;;;;5069904;28;20094;-59
2023/07/20 04:39:38;;;;;;;0.40;0.40;;;17.50;76.60;;;;;;5072730;28;20446;-59
2023/07/20 04:42:04;;;;;;;0.82;0.50;;;17.50;76.60;;;;;;5076561;28;20105;-61
2023/07/20 04:44:30;;;;;;;0.63;0.50;;;17.50;76.60;;;;;;5079263;28;20039;-59
2023/07/20 04:46:56;;;;;;;0.50;0.50;;;17.50;76.70;;;;;;5064464;28;20465;-61
2023/07/20 04:49:21;;;;;;;0.55;0.47;;;17.60;76.80;;;;;;5073139;28;20028;-58
2023/07/20 04:51:47;;;;;;;2.58;0.77;;;17.60;77.00;;;;;;5071129;28;20490;-59
2023/07/20 04:54:13;;;;;;;0.52;0.45;;;17.60;77.10;;;;;;5081327;28;20024;-59
2023/07/20 04:56:39;;;;;;;1.83;0.57;;;17.70;77.10;;;;;;5070896;28;20028;-58
2023/07/20 04:59:04;;;;;;;0.57;0.57;;;17.70;77.10;;;;;;5066511;28;20033;-58
2023/07/20 05:01:30;;;;;;;0.50;0.50;;;17.70;77.00;;;;;;5070824;28;20034;-59
2023/07/20 05:03:56;;;;;;;0.77;0.77;;;17.80;77.00;;;;;;5070402;28;20043;-59
2023/07/20 05:06:21;;;;;;;0.80;0.80;;;17.80;76.90;;;;;;5074109;28;20024;-59
2023/07/20 05:08:47;;;;;;;1.00;0.90;;;17.80;76.90;;;;;;5072886;28;20056;-59
2023/07/20 05:11:13;;;;;;;1.92;0.95;;;17.90;77.70;;;;;;5067245;28;20102;-59
2023/07/20 05:13:38;;;;;;;0.73;0.70;;;17.90;77.00;;;;;;5074660;28;20133;-61
2023/07/20 05:16:04;;;;;;;0.40;0.40;;;17.90;77.10;;;;;;5073510;28;20535;-58
2023/07/20 05:18:30;;;;;;;0.57;0.57;;;17.90;77.00;;;;;;5070010;28;20483;-58
2023/07/20 05:20:56;;;;;;;0.60;0.60;;;18.00;77.00;;;;;;5078445;28;20067;-62
2023/07/20 05:23:22;;;;;;;0.90;0.70;;;18.00;76.80;;;;;;5072275;28;20129;-62
2023/07/20 05:25:58;;;;;;;1.02;0.60;;;18.10;76.70;;;;;;5072451;28;20035;-62
2023/07/20 05:28:26;;;;;;;0.82;0.57;;;18.10;76.60;;;;;;5071649;28;20093;-58
2023/07/20 05:30:52;;;;;;;0.40;0.40;;;18.10;76.70;;;;;;5073216;28;20054;-59
2023/07/20 05:33:21;;;;;;;0.60;0.55;;;18.10;76.60;;;;;;5078224;28;20102;-58
2023/07/20 05:35:47;;;;;;;0.85;0.70;;;18.20;76.60;;;;;;5073003;28;20356;-62
2023/07/20 05:38:13;;;;;;;0.43;0.40;;;18.20;76.60;;;;;;5080298;28;20605;-60
2023/07/20 05:40:41;;;;;;;0.50;0.50;;;18.20;76.50;;;;;;5074013;28;20115;-58
2023/07/20 05:43:06;;;;;;;0.50;0.50;;;18.20;76.40;;;;;;5075601;28;20056;-59
2023/07/20 05:45:32;;;;;;;2.25;0.90;;;18.20;76.30;;;;;;5078944;28;20864;-62
2023/07/20 05:47:57;;;;;;;0.57;0.55;;;18.20;76.30;;;;;;5077653;28;20055;-59
2023/07/20 05:50:23;;;;;;;0.32;0.32;;;18.30;76.30;;;;;;5068544;28;20029;-59
2023/07/20 05:52:52;;;;;;;0.30;0.30;;;18.30;76.20;;;;;;5079965;28;20024;-62
2023/07/20 05:55:18;;;;;;;0.47;0.40;;;18.30;76.10;;;;;;5086558;28;20054;-62
2023/07/20 05:57:43;;;;;;;0.30;0.30;;;18.40;76.00;;;;;;5075045;28;20032;-62
2023/07/20 06:00:10;;;;;;;0.40;0.40;;;18.50;75.90;;;;;;5074701;28;20020;-58
2023/07/20 06:02:35;;;;;;;1.58;0.55;;;18.50;75.70;;;;;;5075859;28;20037;-62
2023/07/20 06:05:01;;;;;;;0.40;0.38;;;18.50;75.50;;;;;;5073001;28;20438;-58
2023/07/20 06:07:27;;;;;;;0.40;0.40;;;18.60;75.40;;;;;;5074196;28;20104;-59
2023/07/20 06:09:53;;;;;;;1.67;0.32;;;18.70;75.20;;;;;;5079488;28;20070;-59
2023/07/20 06:12:18;;;;;;;0.30;0.30;;;18.70;75.00;;;;;;5079666;28;20048;-62
2023/07/20 06:14:44;;;;;;;1.23;0.55;;;18.80;74.90;;;;;;5073517;28;20078;-62
2023/07/20 06:17:10;;;;;;;0.20;0.20;;;18.80;74.50;;;;;;5074183;28;20060;-62
2023/07/20 06:19:35;;;;;;;0.35;0.30;;;18.80;74.30;;;;;;5066020;28;20044;-62
2023/07/20 06:22:02;;;;;;;0.82;0.60;;;18.80;74.10;;;;;;5071875;28;20059;-62
2023/07/20 06:24:27;;;;;;;0.40;0.40;;;18.90;74.10;;;;;;5067174;28;20044;-62
2023/07/20 06:26:53;;;;;;;0.30;0.30;;;19.00;73.90;;;;;;5064375;28;20031;-62
2023/07/20 06:29:19;;;;;;;0.30;0.30;;;19.00;73.60;;;;;;5071688;28;20082;-62
2023/07/20 06:31:44;;;;;;;0.40;0.30;;;19.10;73.30;;;;;;5072747;28;20032;-62
2023/07/20 06:34:10;;;;;;;0.40;0.40;;;19.10;73.10;;;;;;5064868;28;20475;-62
2023/07/20 06:36:36;;;;;;;0.20;0.20;;;19.10;72.60;;;;;;5071934;28;20027;-62
2023/07/20 06:39:03;;;;;;;0.30;0.30;;;19.10;72.50;;;;;;5070364;28;20077;-62
2023/07/20 06:41:28;;;;;;;0.57;0.52;;;19.20;72.40;;;;;;5069472;28;20119;-62
2023/07/20 06:43:57;;;;;;;0.30;0.30;;;19.20;72.30;;;;;;5069508;28;20116;-59
2023/07/20 06:46:25;;;;;;;0.30;0.30;;;19.30;72.00;;;;;;5075589;28;20025;-58
2023/07/20 06:48:50;;;;;;;0.47;0.40;;;19.40;71.80;;;;;;5073229;28;20564;-61
2023/07/20 06:51:17;;;;;;;0.30;0.30;;;19.40;71.60;;;;;;5076483;28;20028;-58
2023/07/20 06:53:43;;;;;;;0.20;0.20;;;19.50;71.50;;;;;;5078871;28;20048;-61
2023/07/20 06:56:09;;;;;;;0.30;0.30;;;19.60;71.30;;;;;;5072615;28;20050;-58
2023/07/20 06:58:35;;;;;;;0.25;0.25;;;19.60;70.80;;;;;;5071923;28;20439;-58
2023/07/20 07:01:08;;;;;;;0.30;0.30;;;19.70;70.50;;;;;;5083076;28;20294;-58
2023/07/20 07:03:34;;;;;;;0.40;0.40;;;19.80;70.30;;;;;;5066035;28;20029;-61
2023/07/20 07:06:00;;;;;;;0.20;0.20;;;19.80;69.90;;;;;;5072676;28;20033;-61
2023/07/20 07:08:26;;;;;;;0.30;0.30;;;19.80;70.50;;;;;;5079852;28;20359;-61
2023/07/20 07:10:52;;;;;;;0.47;0.38;;;19.80;69.60;;;;;;5075096;28;20021;-61
2023/07/20 07:13:19;;;;;;;0.20;0.20;;;19.80;69.40;;;;;;5076169;28;20107;-61
2023/07/20 07:15:45;;;;;;;0.30;0.30;;;19.80;68.80;;;;;;5075242;28;20082;-61
2023/07/20 07:18:11;;;;;;;0.20;0.20;;;19.80;68.60;;;;;;5077221;28;20119;-58
2023/07/20 07:20:36;;;;;;;0.22;0.20;;;19.90;68.70;;;;;;5074166;28;20483;-61
2023/07/20 07:23:02;;;;;;;0.20;0.20;;;20.00;68.60;;;;;;5080772;28;20036;-58
2023/07/20 07:25:28;;;;;;;0.40;0.40;;;20.10;68.60;;;;;;5078164;28;20028;-58
2023/07/20 07:27:55;;;;;;;0.28;0.28;;;20.00;68.20;;;;;;5075446;28;20072;-57
2023/07/20 07:30:21;;;;;;;0.30;0.30;;;20.00;68.20;;;;;;5075583;28;20027;-58
2023/07/20 07:32:47;;;;;;;0.30;0.28;;;20.10;67.70;;;;;;5075151;28;20982;-57
2023/07/20 07:35:13;;;;;;;0.22;0.22;;;20.10;67.50;;;;;;5069783;28;20435;-57
2023/07/20 07:37:39;;;;;;;0.43;0.30;;;20.10;67.60;;;;;;5076485;28;20035;-58
2023/07/20 07:40:06;;;;;;;0.60;0.40;;;20.10;67.80;;;;;;5073446;28;20399;-58
2023/07/20 07:42:32;;;;;;;0.65;0.32;;;20.10;66.90;;;;;;5072004;28;20028;-58
2023/07/20 07:44:58;;;;;;;0.30;0.30;;;20.10;66.10;;;;;;5071966;28;20021;-58
2023/07/20 07:47:23;;;;;;;0.52;0.43;;;20.10;66.40;;;;;;5074440;28;20032;-58
2023/07/20 07:49:49;;;;;;;0.32;0.20;;;20.20;65.80;;;;;;5080050;28;20024;-58
2023/07/20 07:52:15;;;;;;;0.30;0.30;;;20.10;65.80;;;;;;5084862;28;20314;-58
2023/07/20 07:54:41;;;;;;;0.30;0.30;;;20.10;65.90;;;;;;5079373;28;20028;-58
2023/07/20 07:57:06;;;;;;;0.38;0.38;;;20.00;65.80;;;;;;5077880;28;20541;-58
2023/07/20 07:59:36;;;;;;;0.20;0.20;;;19.90;65.80;;;;;;5082770;28;20494;-58
2023/07/20 08:02:05;;;;;;;0.40;0.40;;;19.90;66.20;;;;;;5083740;28;20043;-58
2023/07/20 08:04:31;;;;;;;0.30;0.30;;;19.80;66.40;;;;;;5071176;28;20112;-59
2023/07/20 08:06:57;;;;;;;0.20;0.20;;;19.80;66.70;;;;;;5080863;28;20110;-58
2023/07/20 08:09:23;;;;;;;0.20;0.20;;;19.90;66.70;;;;;;5079346;28;20117;-62
2023/07/20 08:11:49;;;;;;;0.40;0.30;;;20.10;66.20;;;;;;5076360;28;20107;-61
2023/07/20 08:14:15;;;;;;;0.20;0.20;;;20.30;65.10;;;;;;5076949;28;20059;-62
2023/07/20 08:16:41;;;;;;;0.50;0.50;;;20.50;64.60;;;;;;5080417;28;20049;-62
2023/07/20 08:19:07;;;;;;;0.25;0.25;;;20.70;64.20;;;;;;5078247;28;20133;-62
2023/07/20 08:21:32;;;;;;;0.20;0.20;;;20.90;63.80;;;;;;5074836;28;20056;-59
2023/07/20 08:23:58;;;;;;;0.45;0.32;;;21.10;63.60;;;;;;5071774;28;20094;-58
2023/07/20 08:26:24;;;;;;;0.57;0.40;;;21.30;62.20;;;;;;5069096;28;20040;-58
2023/07/20 08:28:50;;;;;;;0.30;0.30;;;21.40;62.00;;;;;;5064994;28;20032;-62
2023/07/20 08:31:15;;;;;;;0.68;0.45;;;21.50;62.10;;;;;;5068718;28;20049;-58
2023/07/20 08:33:41;;;;;;;0.40;0.40;;;21.60;61.50;;;;;;5066174;28;20411;-58
2023/07/20 08:36:07;;;;;;;0.40;0.40;;;21.70;61.00;;;;;;5072736;28;20041;-62
2023/07/20 08:38:33;;;;;;;0.30;0.30;;;21.80;60.20;;;;;;5067140;28;20032;-62
2023/07/20 08:40:59;;;;;;;0.25;0.25;;;21.90;60.40;;;;;;5076416;28;20028;-62
2023/07/20 08:43:28;;;;;;;0.20;0.20;;;22.00;60.40;;;;;;5054528;28;20029;-62
2023/07/20 08:45:57;;;;;;;0.20;0.20;;;22.00;59.70;;;;;;5069390;28;20375;-58
2023/07/20 08:48:24;;;;;;;0.30;0.30;;;21.90;59.90;;;;;;5068576;28;20023;-62
2023/07/20 08:50:53;;;;;;;0.55;0.40;;;21.70;60.00;;;;;;5072735;28;20033;-59
2023/07/20 08:53:20;;;;;;;0.38;0.32;;;21.70;59.80;;;;;;5084926;28;20028;-62
2023/07/20 08:55:48;;;;;;;0.40;0.40;;;21.80;59.70;;;;;;5067037;28;20467;-59
2023/07/20 08:58:15;;;;;;;0.30;0.30;;;21.90;58.90;;;;;;5075218;28;20028;-58
2023/07/20 09:00:41;;;;;;;0.30;0.30;;;22.00;58.80;;;;;;5069052;28;20683;-59
2023/07/20 09:03:08;;;;;;;0.30;0.30;;;22.10;58.90;;;;;;5069124;28;20081;-58
2023/07/20 09:05:35;;;;;;;0.25;0.25;;;22.10;58.70;;;;;;5073943;28;20029;-59
2023/07/20 09:08:03;;;;;;;0.30;0.30;;;22.20;58.50;;;;;;5074318;28;20017;-58
2023/07/20 09:10:29;;;;;;;0.40;0.40;;;22.30;58.40;;;;;;5081984;28;20413;-58
2023/07/20 09:12:55;;;;;;;0.30;0.30;;;22.40;57.10;;;;;;5074377;28;20390;-58
2023/07/20 09:15:23;;;;;;;0.55;0.50;;;22.50;56.60;;;;;;5074746;28;20062;-62
2023/07/20 09:17:50;;;;;;;0.30;0.30;;;22.60;56.30;;;;;;5072363;28;20024;-62
2023/07/20 09:20:18;;;;;;;0.35;0.35;;;22.80;56.20;;;;;;5064307;28;20037;-59
2023/07/20 09:22:44;;;;;;;0.30;0.30;;;22.90;55.70;;;;;;5073730;28;20114;-62
2023/07/20 09:25:15;;;;;;;0.30;0.30;;;23.00;54.80;;;;;;5063078;28;20589;-62
2023/07/20 09:27:43;;;;;;;0.30;0.30;;;23.10;55.00;;;;;;5079521;28;20063;-59
2023/07/20 09:30:13;;;;;;;0.30;0.30;;;23.30;55.30;;;;;;5072473;28;20028;-58
2023/07/20 09:32:44;;;;;;;0.30;0.30;;;23.50;55.10;;;;;;5075019;28;20112;-62
2023/07/20 09:35:17;;;;;;;0.43;0.30;;;23.60;54.90;;;;;;5073919;28;20758;-62
2023/07/20 09:38:00;;;;;;;0.25;0.25;;;23.60;53.60;;;;;;5073848;28;20991;-59
2023/07/20 09:40:27;;;;;;;0.30;0.30;;;23.40;53.90;;;;;;5079964;28;20117;-62
2023/07/20 09:43:00;;;;;;;0.32;0.32;;;23.20;53.60;;;;;;5074256;28;20036;-62
2023/07/20 09:45:42;;;;;;;0.30;0.30;;;23.00;53.70;;;;;;5069211;28;20491;-59
2023/07/20 09:48:09;;;;;;;0.32;0.32;;;22.90;54.60;;;;;;5066222;28;20052;-58
2023/07/20 09:50:51;;;;;;;0.32;0.20;;;22.80;54.30;;;;;;5064155;28;20033;-58
2023/07/20 09:53:18;;;;;;;0.30;0.30;;;22.70;54.70;;;;;;5076486;28;20360;-59
2023/07/20 09:55:47;;;;;;;0.30;0.30;;;22.60;54.80;;;;;;5071769;28;20387;-58
2023/07/20 09:58:15;;;;;;;0.30;0.30;;;22.50;53.90;;;;;;5075508;28;21363;-58
2023/07/20 10:00:46;;;;;;;0.20;0.20;;;22.50;54.40;;;;;;5070156;28;20074;-59
2023/07/20 10:03:17;;;;;;;0.40;0.40;;;22.50;54.50;;;;;;5067060;28;20028;-59
2023/07/20 10:05:49;;;;;;;0.30;0.30;;;22.60;54.30;;;;;;5069094;28;20033;-59
2023/07/20 10:08:18;;;;;;;0.30;0.30;;;22.60;54.20;;;;;;5067896;28;20066;-59
2023/07/20 10:10:45;;;;;;;2.22;0.60;;;22.60;54.40;;;;;;5070623;28;20286;-59
2023/07/20 10:13:22;;;;;;;0.20;0.20;;;22.50;54.40;;;;;;5066115;28;20032;-58
2023/07/20 10:15:54;;;;;;;0.40;0.40;;;22.50;54.80;;;;;;5074354;28;20123;-59
2023/07/20 10:18:50;;;;;;;0.15;0.15;;;22.50;53.40;;;;;;5069945;28;20478;-58
2023/07/20 10:21:19;;;;;;;0.45;0.40;;;22.40;53.60;;;;;;5059313;28;20400;-62
2023/07/20 10:23:46;;;;;;;0.20;0.20;;;22.30;53.70;;;;;;5077077;28;20033;-61
2023/07/20 10:26:13;;;;;;;0.75;0.73;;;22.30;54.20;;;;;;5071330;28;20027;-61
2023/07/20 10:28:39;;;;;;;0.30;0.30;;;22.50;54.50;;;;;;5069790;28;20032;-61
2023/07/20 10:31:08;;;;;;;0.60;0.60;;;22.50;54.20;;;;;;5075488;28;20032;-61
2023/07/20 10:33:34;;;;;;;0.35;0.35;;;22.70;54.20;;;;;;5074948;28;20424;-59
2023/07/20 10:36:05;;;;;;;0.30;0.30;;;22.70;54.00;;;;;;5076890;28;20032;-58
2023/07/20 10:38:44;;;;;;;0.28;0.28;;;22.90;53.70;;;;;;5076920;28;20103;-58
2023/07/20 10:41:39;;;;;;;0.30;0.30;;;23.20;53.40;;;;;;5068909;28;20044;-61
2023/07/20 10:44:08;;;;;;;0.40;0.30;;;23.70;53.00;;;;;;5070477;28;20040;-58
2023/07/20 10:46:45;;;;;;;0.30;0.30;;;24.00;52.60;;;;;;5071292;28;20033;-59
2023/07/20 10:49:12;;;;;;;0.28;0.28;;;24.30;51.80;;;;;;5081484;28;20032;-59
2023/07/20 10:51:43;;;;;;;0.40;0.40;;;24.50;51.50;;;;;;5076292;28;20526;-59
2023/07/20 10:54:15;;;;;;;0.40;0.40;;;24.50;51.10;;;;;;5075251;28;20029;-62
2023/07/20 10:56:41;;;;;;;0.30;0.30;;;24.30;51.10;;;;;;5073183;28;20047;-62
2023/07/20 10:59:40;;;;;;;0.45;0.45;;;24.40;51.60;;;;;;5075109;28;20036;-62
2023/07/20 11:02:08;;;;;;;0.30;0.30;;;24.60;51.50;;;;;;5078292;28;20106;-62
2023/07/20 11:04:42;;;;;;;0.55;0.47;;;24.90;51.00;;;;;;5074505;28;20032;-62
2023/07/20 11:07:08;;;;;;;0.35;0.35;;;25.20;50.40;;;;;;5068525;28;20341;-59
2023/07/20 11:09:38;;;;;;;0.30;0.30;;;25.40;50.50;;;;;;5075282;28;20036;-59
2023/07/20 11:12:10;;;;;;;0.20;0.20;;;25.40;49.50;;;;;;5068287;28;20024;-62
2023/07/20 11:15:00;;;;;;;0.80;0.52;;;25.40;49.80;;;;;;5073251;28;20028;-61
2023/07/20 11:17:30;;;;;;;0.43;0.30;;;25.40;49.00;;;;;;5069961;28;20064;-62
2023/07/20 11:19:57;;;;;;;0.30;0.30;;;25.30;49.30;;;;;;5060240;28;20123;-58
2023/07/20 11:22:22;;;;;;;0.40;0.40;;;25.20;49.00;;;;;;5059952;28;20467;-62
2023/07/20 11:24:49;;;;;;;1.27;0.85;;;25.10;49.00;;;;;;5070099;28;20101;-62
2023/07/20 11:27:15;;;;;;;0.50;0.50;;;25.10;48.90;;;;;;5069313;28;20079;-61
2023/07/20 11:29:41;;;;;;;2.63;0.40;;;24.80;48.60;;;;;;5069211;28;20033;-58
2023/07/20 11:32:07;;;;;;;0.38;0.38;;;24.70;48.60;;;;;;5078567;28;20028;-58
2023/07/20 11:34:34;;;;;;;0.40;0.40;;;24.60;49.30;;;;;;5072068;28;20384;-60
2023/07/20 11:37:00;;;;;;;0.43;0.35;;;24.60;49.30;;;;;;5074324;28;20518;-61
2023/07/20 11:39:27;;;;;;;0.40;0.40;;;24.50;49.50;;;;;;5070793;28;20472;-61
2023/07/20 11:41:57;;;;;;;0.32;0.32;;;24.40;49.90;;;;;;5074563;28;20032;-61
2023/07/20 11:44:28;;;;;;;0.50;0.50;;;24.30;49.90;;;;;;5072337;28;20029;-61
2023/07/20 11:47:07;;;;;;;0.30;0.30;;;24.20;50.30;;;;;;5078639;28;20083;-61
2023/07/20 11:49:43;;;;;;;0.30;0.30;;;24.20;50.50;;;;;;5076876;28;20040;-58
2023/07/20 11:52:16;;;;;;;0.40;0.40;;;24.10;50.40;;;;;;5072646;28;20038;-58
2023/07/20 11:54:43;;;;;;;0.40;0.40;;;24.00;50.60;;;;;;5075829;28;20047;-58
2023/07/20 11:57:19;;;;;;;0.40;0.40;;;23.90;50.80;;;;;;5067753;28;20072;-57
2023/07/20 12:00:00;;;;;;;0.95;0.55;;;23.80;51.40;;;;;;5064610;28;20517;-57
2023/07/20 12:02:29;;;;;;;0.30;0.30;;;23.80;52.20;;;;;;5061862;28;20064;-61
2023/07/20 12:04:56;;;;;;;0.45;0.40;;;23.60;51.60;;;;;;5067962;28;20055;-61
2023/07/20 12:07:22;;;;;;;0.68;0.50;;;23.60;51.90;;;;;;5069195;28;20036;-61
2023/07/20 12:10:08;;;;;;;0.57;0.57;;;23.50;51.80;;;;;;5070882;28;20044;-57
2023/07/20 12:12:38;;;;;;;1.23;0.50;;;23.50;52.20;;;;;;5072002;28;20030;-57
2023/07/20 12:15:16;;;;;;;0.30;0.30;;;23.70;52.10;;;;;;5073054;28;20045;-60
2023/07/20 12:17:48;;;;;;;0.82;0.50;;;24.00;51.00;;;;;;5094237;28;20052;-60
2023/07/20 12:20:27;;;;;;;0.40;0.40;;;24.30;50.80;;;;;;5067791;28;20191;-57
2023/07/20 12:22:57;;;;;;;2.17;0.70;;;24.90;50.00;;;;;;5075138;28;20094;-60
2023/07/20 12:25:23;;;;;;;0.40;0.40;;;25.10;48.90;;;;;;5072163;28;20024;-57
2023/07/20 12:27:49;;;;;;;1.38;0.40;;;25.00;48.80;;;;;;5070712;28;20108;-61
2023/07/20 12:30:15;;;;;;;0.30;0.30;;;24.90;49.40;;;;;;5065901;28;20041;-61
2023/07/20 12:32:41;;;;;;;0.30;0.30;;;24.70;49.90;;;;;;5073760;28;20626;-62
2023/07/20 12:35:06;;;;;;;0.38;0.38;;;24.70;50.40;;;;;;5072525;28;20873;-60
2023/07/20 12:37:32;;;;;;;0.40;0.40;;;24.60;50.30;;;;;;5068008;28;20044;-61
2023/07/20 12:39:58;;;;;;;0.30;0.30;;;24.80;50.00;;;;;;5073706;28;20085;-57
2023/07/20 12:42:24;;;;;;;0.38;0.38;;;25.10;49.50;;;;;;5077722;28;20060;-57
2023/07/20 12:44:50;;;;;;;0.40;0.40;;;25.40;49.20;;;;;;5071244;28;20390;-58
2023/07/20 12:47:17;;;;;;;0.50;0.50;;;25.60;48.10;;;;;;5063702;28;20040;-58
2023/07/20 12:49:46;;;;;;;2.53;0.70;;;25.60;48.20;;;;;;5070574;28;20060;-61
2023/07/20 12:52:12;;;;;;;0.43;0.43;;;25.60;48.20;;;;;;5067170;28;20036;-57